createdAt,value
2023-06-15T00:02:24.621Z,101466.94
2023-06-15T00:05:17.198Z,101469.81
2023-06-15T00:07:44.941Z,101473.38
2023-06-15T00:10:12.799Z,101467.19
2023-06-15T00:12:39.824Z,101481.19
2023-06-15T00:15:07.779Z,101478.13
2023-06-15T00:17:39.136Z,101484.69
2023-06-15T00:20:09.617Z,101481.22
2023-06-15T00:22:39.754Z,101481.78
2023-06-15T00:25:08.295Z,101483.22
2023-06-15T00:27:36.710Z,101483.22
2023-06-15T00:30:07.169Z,101487.56
2023-06-15T00:32:34.202Z,101480.94
2023-06-15T00:35:01.219Z,101487.53
2023-06-15T00:37:28.220Z,101478.66
2023-06-15T00:39:55.699Z,101488.31
2023-06-15T00:42:22.798Z,101488.91
2023-06-15T00:44:49.759Z,101485.81
2023-06-15T00:47:22.472Z,101488.06
2023-06-15T00:49:50.320Z,101486.81
2023-06-15T00:52:18.698Z,101489.84
2023-06-15T00:54:46.663Z,101485.91
2023-06-15T00:57:15.945Z,101484.88
2023-06-15T00:59:43.728Z,101485.91
2023-06-15T01:02:14.207Z,101486.75
2023-06-15T01:04:41.627Z,101483.91
2023-06-15T01:07:12.322Z,101485.53
2023-06-15T01:09:42.978Z,101481.59
2023-06-15T01:12:15.564Z,101478.91
2023-06-15T01:14:42.680Z,101480.97
2023-06-15T01:17:17.298Z,101472.31
2023-06-15T01:19:59.264Z,101480.97
2023-06-15T01:22:36.323Z,101475.03
2023-06-15T01:25:34.323Z,101482.22
2023-06-15T01:28:03.918Z,101479.31
2023-06-15T01:30:34.880Z,101476.00
2023-06-15T01:33:02.315Z,101474.78
2023-06-15T01:35:37.406Z,101479.88
2023-06-15T01:38:05.143Z,101478.22
2023-06-15T01:40:35.134Z,101471.00
2023-06-15T01:43:04.378Z,101469.75
2023-06-15T01:45:40.942Z,101475.09
2023-06-15T01:48:08.487Z,101472.84
2023-06-15T01:50:37.325Z,101475.09
2023-06-15T01:53:04.762Z,101474.41
2023-06-15T01:55:36.558Z,101477.50
2023-06-15T01:58:04.042Z,101473.56
2023-06-15T02:00:31.119Z,101472.28
2023-06-15T02:02:58.286Z,101471.03
2023-06-15T02:05:25.346Z,101478.81
2023-06-15T02:07:53.635Z,101474.06
2023-06-15T02:10:20.890Z,101472.00
2023-06-15T02:12:47.930Z,101474.84
2023-06-15T02:15:15.191Z,101478.56
2023-06-15T02:17:42.871Z,101482.63
2023-06-15T02:20:10.915Z,101478.50
2023-06-15T02:22:38.029Z,101477.25
2023-06-15T02:25:06.313Z,101480.25
2023-06-15T02:27:33.267Z,101481.28
2023-06-15T02:30:00.335Z,101483.34
2023-06-15T02:32:36.587Z,101486.59
2023-06-15T02:35:06.614Z,101490.47
2023-06-15T02:37:34.094Z,101481.63
2023-06-15T02:40:01.333Z,101486.53
2023-06-15T02:42:28.282Z,101487.53
2023-06-15T02:44:55.245Z,101485.50
2023-06-15T02:47:22.410Z,101485.47
2023-06-15T02:49:49.482Z,101491.13
2023-06-15T02:52:16.593Z,101482.69
2023-06-15T02:54:44.713Z,101485.53
2023-06-15T02:57:11.706Z,101479.56
2023-06-15T02:59:39.102Z,101482.22
2023-06-15T03:02:06.317Z,101495.56
2023-06-15T03:04:45.738Z,101489.13
2023-06-15T03:07:18.410Z,101490.53
2023-06-15T03:09:48.983Z,101481.44
2023-06-15T03:12:16.667Z,101484.28
2023-06-15T03:14:51.899Z,101483.44
2023-06-15T03:17:19.972Z,101486.13
2023-06-15T03:19:49.027Z,101485.03
2023-06-15T03:22:16.466Z,101495.63
2023-06-15T03:24:46.110Z,101492.53
2023-06-15T03:27:13.298Z,101494.94
2023-06-15T03:29:40.964Z,101493.00
2023-06-15T03:32:09.398Z,101488.44
2023-06-15T03:34:37.300Z,101494.13
2023-06-15T03:37:04.712Z,101496.63
2023-06-15T03:39:32.185Z,101495.63
2023-06-15T03:41:59.436Z,101492.97
2023-06-15T03:44:26.498Z,101492.69
2023-06-15T03:46:53.438Z,101487.56
2023-06-15T03:49:20.367Z,101495.72
2023-06-15T03:51:47.393Z,101494.88
2023-06-15T03:54:14.293Z,101491.78
2023-06-15T03:56:41.783Z,101503.44
2023-06-15T03:59:08.858Z,101494.34
2023-06-15T04:01:35.755Z,101494.75
2023-06-15T04:04:02.825Z,101497.41
2023-06-15T04:06:31.316Z,101492.25
2023-06-15T04:08:58.420Z,101498.03
2023-06-15T04:11:25.610Z,101497.13
2023-06-15T04:13:52.537Z,101496.56
2023-06-15T04:16:19.443Z,101500.13
2023-06-15T04:18:46.987Z,101497.91
2023-06-15T04:21:14.212Z,101498.56
2023-06-15T04:23:44.693Z,101487.25
2023-06-15T04:26:11.744Z,101496.06
2023-06-15T04:28:38.692Z,101498.91
2023-06-15T04:31:11.566Z,101495.63
2023-06-15T04:33:46.323Z,101496.63
2023-06-15T04:36:14.192Z,101497.00
2023-06-15T04:38:47.921Z,101498.66
2023-06-15T04:41:16.305Z,101492.31
2023-06-15T04:43:43.339Z,101500.13
2023-06-15T04:46:10.465Z,101499.66
2023-06-15T04:48:38.163Z,101496.16
2023-06-15T04:51:06.399Z,101508.31
2023-06-15T04:53:33.427Z,101507.84
2023-06-15T04:56:00.431Z,101512.97
2023-06-15T04:58:27.413Z,101508.13
2023-06-15T05:00:54.409Z,101504.25
2023-06-15T05:03:26.978Z,101506.34
2023-06-15T05:05:54.453Z,101513.16
2023-06-15T05:08:21.582Z,101517.09
2023-06-15T05:10:48.654Z,101519.94
2023-06-15T05:13:23.784Z,101516.00
2023-06-15T05:15:54.746Z,101521.34
2023-06-15T05:18:23.020Z,101517.22
2023-06-15T05:20:50.174Z,101520.50
2023-06-15T05:23:21.265Z,101520.88
2023-06-15T05:25:48.235Z,101515.16
2023-06-15T05:28:15.702Z,101519.94
2023-06-15T05:30:42.630Z,101517.75
2023-06-15T05:33:09.770Z,101523.88
2023-06-15T05:35:36.862Z,101523.88
2023-06-15T05:38:03.828Z,101519.03
2023-06-15T05:40:30.894Z,101526.31
2023-06-15T05:42:58.371Z,101529.75
2023-06-15T05:45:27.309Z,101531.16
2023-06-15T05:47:54.748Z,101525.75
2023-06-15T05:50:21.924Z,101527.59
2023-06-15T05:52:49.170Z,101532.16
2023-06-15T05:55:16.626Z,101531.16
2023-06-15T05:57:43.799Z,101525.91
2023-06-15T06:00:11.820Z,101524.34
2023-06-15T06:02:38.886Z,101535.13
2023-06-15T06:05:06.288Z,101525.81
2023-06-15T06:07:33.220Z,101535.59
2023-06-15T06:10:00.247Z,101530.72
2023-06-15T06:12:27.262Z,101535.00
2023-06-15T06:14:54.204Z,101533.66
2023-06-15T06:17:42.957Z,101534.41
2023-06-15T06:20:08.792Z,101527.81
2023-06-15T06:22:35.892Z,101531.00
2023-06-15T06:25:02.861Z,101536.09
2023-06-15T06:27:29.798Z,101539.16
2023-06-15T06:29:57.563Z,101535.91
2023-06-15T06:32:24.599Z,101542.41
2023-06-15T06:34:51.702Z,101538.06
2023-06-15T06:37:18.744Z,101542.66
2023-06-15T06:39:45.677Z,101540.59
2023-06-15T06:42:13.014Z,101539.88
2023-06-15T06:44:40.136Z,101551.94
2023-06-15T06:47:07.565Z,101546.59
2023-06-15T06:49:35.152Z,101548.06
2023-06-15T06:52:02.455Z,101541.47
2023-06-15T06:54:29.461Z,101545.94
2023-06-15T06:56:56.405Z,101551.28
2023-06-15T06:59:41.875Z,101557.00
2023-06-15T07:02:10.545Z,101551.22
2023-06-15T07:04:41.336Z,101549.75
2023-06-15T07:07:08.590Z,101559.44
2023-06-15T07:09:36.251Z,101560.88
2023-06-15T07:12:03.738Z,101560.03
2023-06-15T07:14:36.221Z,101552.84
2023-06-15T07:17:03.567Z,101556.53
2023-06-15T07:19:30.695Z,101556.44
2023-06-15T07:21:57.788Z,101555.84
2023-06-15T07:24:25.223Z,101566.13
2023-06-15T07:26:52.685Z,101572.16
2023-06-15T07:29:20.881Z,101584.72
2023-06-15T07:31:50.044Z,101581.75
2023-06-15T07:34:17.870Z,101570.34
2023-06-15T07:36:46.651Z,101578.91
2023-06-15T07:39:18.189Z,101573.31
2023-06-15T07:41:45.660Z,101578.81
2023-06-15T07:44:23.628Z,101579.97
2023-06-15T07:46:51.624Z,101586.78
2023-06-15T07:49:24.516Z,101582.56
2023-06-15T07:52:09.456Z,101595.88
2023-06-15T07:54:43.587Z,101583.00
2023-06-15T07:57:12.601Z,101582.50
2023-06-15T07:59:43.512Z,101578.31
2023-06-15T08:02:17.142Z,101578.47
2023-06-15T08:05:03.370Z,101579.03
2023-06-15T08:07:33.295Z,101587.44
2023-06-15T08:10:01.513Z,101586.81
2023-06-15T08:12:40.450Z,101589.19
2023-06-15T08:15:22.592Z,101585.50
2023-06-15T08:18:17.617Z,101592.09
2023-06-15T08:20:58.734Z,101588.09
2023-06-15T08:23:39.102Z,101580.25
2023-06-15T08:26:17.605Z,101593.72
2023-06-15T08:28:52.333Z,101588.53
2023-06-15T08:31:21.678Z,101581.59
2023-06-15T08:34:04.815Z,101585.88
2023-06-15T08:39:28.820Z,101584.31
2023-06-15T08:41:57.494Z,101593.16
2023-06-15T08:44:31.111Z,101581.59
2023-06-15T08:47:17.359Z,101578.91
2023-06-15T08:49:53.937Z,101587.03
2023-06-15T08:52:33.788Z,101591.91
2023-06-15T08:55:23.740Z,101584.69
2023-06-15T08:58:27.798Z,101572.91
2023-06-15T09:01:20.426Z,101578.59
2023-06-15T09:03:58.820Z,101587.06
2023-06-15T09:06:44.335Z,101576.94
2023-06-15T09:09:21.553Z,101580.03
2023-06-15T09:11:50.547Z,101575.66
2023-06-15T09:17:55.964Z,101570.91
2023-06-15T09:20:45.710Z,101582.50
2023-06-15T09:23:28.186Z,101586.81
2023-06-15T09:26:27.648Z,101586.59
2023-06-15T09:29:19.299Z,101581.34
2023-06-15T09:31:48.935Z,101576.34
2023-06-15T09:34:36.378Z,101583.38
2023-06-15T09:37:36.003Z,101578.16
2023-06-15T09:40:16.644Z,101580.38
2023-06-15T09:42:57.141Z,101579.22
2023-06-15T09:45:43.587Z,101579.63
2023-06-15T09:48:27.704Z,101584.59
2023-06-15T09:51:07.363Z,101588.72
2023-06-15T09:54:02.622Z,101582.81
2023-06-15T09:56:45.670Z,101587.47
2023-06-15T09:59:27.462Z,101582.84
2023-06-15T10:02:14.629Z,101589.38
2023-06-15T10:04:44.448Z,101587.16
2023-06-15T10:07:14.174Z,101572.72
2023-06-15T10:09:48.670Z,101577.03
2023-06-15T10:12:19.215Z,101580.69
2023-06-15T10:15:00.212Z,101583.22
2023-06-15T10:17:35.502Z,101584.00
2023-06-15T10:20:09.415Z,101588.28
2023-06-15T10:22:47.857Z,101583.94
2023-06-15T10:25:16.555Z,101584.97
2023-06-15T10:27:46.050Z,101597.69
2023-06-15T10:30:33.512Z,101578.53
2023-06-15T10:33:18.773Z,101574.19
2023-06-15T10:36:12.558Z,101573.66
2023-06-15T10:38:50.260Z,101577.91
2023-06-15T10:41:18.391Z,101572.63
2023-06-15T10:43:59.826Z,101567.75
2023-06-15T10:46:33.025Z,101567.91
2023-06-15T10:49:11.841Z,101564.22
2023-06-15T10:51:51.967Z,101561.88
2023-06-15T10:54:29.120Z,101559.09
2023-06-15T10:56:57.598Z,101559.44
2023-06-15T10:59:38.523Z,101565.06
2023-06-15T11:02:35.409Z,101566.03
2023-06-15T11:05:12.301Z,101566.28
2023-06-15T11:07:43.122Z,101562.84
2023-06-15T11:10:12.332Z,101558.63
2023-06-15T11:12:42.805Z,101561.78
2023-06-15T11:15:12.554Z,101562.13
2023-06-15T11:18:00.377Z,101550.44
2023-06-15T11:20:41.207Z,101548.34
2023-06-15T11:23:22.486Z,101546.13
2023-06-15T11:25:52.539Z,101553.41
2023-06-15T11:28:35.824Z,101553.19
2023-06-15T11:31:08.545Z,101548.50
2023-06-15T11:33:39.164Z,101543.13
2023-06-15T11:36:08.825Z,101547.69
2023-06-15T11:38:38.126Z,101548.97
2023-06-15T11:41:09.021Z,101549.44
2023-06-15T11:43:42.684Z,101543.56
2023-06-15T11:46:13.539Z,101537.47
2023-06-15T11:48:43.068Z,101542.03
2023-06-15T11:51:13.083Z,101531.97
2023-06-15T11:53:42.406Z,101538.91
2023-06-15T11:56:16.340Z,101530.22
2023-06-15T11:58:47.922Z,101530.31
2023-06-15T12:01:17.586Z,101530.09
2023-06-15T12:04:02.078Z,101525.53
2023-06-15T12:06:32.816Z,101538.53
2023-06-15T12:09:01.126Z,101536.75
2023-06-15T12:11:28.789Z,101517.88
2023-06-15T12:14:08.564Z,101514.44
2023-06-15T12:16:36.835Z,101521.00
2023-06-15T12:19:05.945Z,101524.63
2023-06-15T12:21:39.109Z,101524.03
2023-06-15T12:24:15.628Z,101517.59
2023-06-15T12:26:49.200Z,101525.69
2023-06-15T12:29:18.320Z,101522.38
2023-06-15T12:31:50.957Z,101510.03
2023-06-15T12:34:24.144Z,101515.19
2023-06-15T12:36:54.104Z,101512.28
2023-06-15T12:39:28.245Z,101501.63
2023-06-15T12:42:05.128Z,101511.25
2023-06-15T12:44:36.296Z,101512.97
2023-06-15T12:47:04.419Z,101512.88
2023-06-15T12:49:33.279Z,101505.75
2023-06-15T12:52:01.394Z,101513.75
2023-06-15T12:54:29.039Z,101511.59
2023-06-15T12:56:56.690Z,101511.38
2023-06-15T12:59:24.562Z,101512.78
2023-06-15T13:01:52.249Z,101520.06
2023-06-15T13:04:20.547Z,101513.00
2023-06-15T13:06:48.518Z,101502.00
2023-06-15T13:09:16.090Z,101500.44
2023-06-15T13:11:44.119Z,101508.03
2023-06-15T13:14:11.673Z,101506.03
2023-06-15T13:16:39.472Z,101500.59
2023-06-15T13:19:09.135Z,101506.75
2023-06-15T13:21:36.637Z,101504.03
2023-06-15T13:24:04.683Z,101507.22
2023-06-15T13:26:32.504Z,101513.69
2023-06-15T13:29:02.801Z,101515.91
2023-06-15T13:31:30.409Z,101501.66
2023-06-15T13:33:57.983Z,101502.75
2023-06-15T13:36:25.679Z,101502.88
2023-06-15T13:38:54.005Z,101497.31
2023-06-15T13:41:21.493Z,101493.69
2023-06-15T13:43:49.857Z,101489.34
2023-06-15T13:46:19.471Z,101487.78
2023-06-15T13:48:47.671Z,101498.34
2023-06-15T13:51:15.323Z,101499.13
2023-06-15T13:53:42.868Z,101490.13
2023-06-15T13:56:10.762Z,101502.69
2023-06-15T13:58:38.823Z,101496.63
2023-06-15T14:01:06.998Z,101502.19
2023-06-15T14:03:35.516Z,101502.31
2023-06-15T14:06:03.787Z,101498.47
2023-06-15T14:08:31.675Z,101486.38
2023-06-15T14:10:59.508Z,101491.69
2023-06-15T14:13:28.742Z,101487.56
2023-06-15T14:15:56.466Z,101491.03
2023-06-15T14:18:24.970Z,101481.88
2023-06-15T14:20:52.809Z,101480.50
2023-06-15T14:23:20.778Z,101483.41
2023-06-15T14:25:48.624Z,101486.34
2023-06-15T14:28:18.884Z,101485.72
2023-06-15T14:30:46.765Z,101487.69
2023-06-15T14:33:14.762Z,101489.19
2023-06-15T14:35:42.249Z,101482.66
2023-06-15T14:38:09.980Z,101479.94
2023-06-15T14:40:38.122Z,101481.00
2023-06-15T14:43:05.914Z,101480.09
2023-06-15T14:45:33.184Z,101485.41
2023-06-15T14:48:00.480Z,101482.09
2023-06-15T14:50:27.885Z,101486.63
2023-06-15T14:52:55.385Z,101479.22
2023-06-15T14:55:22.829Z,101476.03
2023-06-15T14:57:50.266Z,101472.63
2023-06-15T15:00:19.002Z,101470.84
2023-06-15T15:02:49.067Z,101476.66
2023-06-15T15:05:17.988Z,101483.66
2023-06-15T15:07:45.538Z,101477.34
2023-06-15T15:10:13.043Z,101476.88
2023-06-15T15:12:41.367Z,101472.53
2023-06-15T15:15:09.728Z,101466.47
2023-06-15T15:17:37.102Z,101469.56
2023-06-15T15:20:05.844Z,101471.59
2023-06-15T15:22:33.320Z,101466.19
2023-06-15T15:25:01.155Z,101467.47
2023-06-15T15:27:28.929Z,101467.19
2023-06-15T15:29:56.258Z,101460.19
2023-06-15T15:32:23.619Z,101467.69
2023-06-15T15:34:51.442Z,101466.44
2023-06-15T15:37:19.211Z,101472.00
2023-06-15T15:39:46.642Z,101468.13
2023-06-15T15:42:14.126Z,101468.50
2023-06-15T15:44:41.580Z,101462.22
2023-06-15T15:47:09.373Z,101466.53
2023-06-15T15:49:36.845Z,101458.53
2023-06-15T15:52:04.685Z,101458.91
2023-06-15T15:54:31.998Z,101458.63
2023-06-15T15:57:01.700Z,101468.38
2023-06-15T15:59:29.049Z,101465.69
2023-06-15T16:01:56.947Z,101463.56
2023-06-15T16:04:24.558Z,101465.44
2023-06-15T16:06:52.242Z,101460.59
2023-06-15T16:09:19.547Z,101466.00
2023-06-15T16:11:46.988Z,101457.09
2023-06-15T16:14:14.249Z,101459.31
2023-06-15T16:16:41.736Z,101464.63
2023-06-15T16:19:09.055Z,101457.34
2023-06-15T16:21:37.745Z,101469.19
2023-06-15T16:24:06.802Z,101460.28
2023-06-15T16:26:34.181Z,101457.81
2023-06-15T16:29:01.671Z,101459.72
2023-06-15T16:31:29.074Z,101458.63
2023-06-15T16:33:56.312Z,101453.97
2023-06-15T16:36:23.814Z,101456.09
2023-06-15T16:38:51.300Z,101453.41
2023-06-15T16:41:18.559Z,101456.34
2023-06-15T16:43:45.796Z,101451.75
2023-06-15T16:46:16.622Z,101451.75
2023-06-15T16:48:43.931Z,101453.88
2023-06-15T16:51:11.290Z,101441.19
2023-06-15T16:53:38.672Z,101449.53
2023-06-15T16:56:06.253Z,101449.28
2023-06-15T16:58:33.510Z,101456.91
2023-06-15T17:01:01.062Z,101455.75
2023-06-15T17:03:28.753Z,101457.28
2023-06-15T17:05:56.561Z,101449.06
2023-06-15T17:08:23.935Z,101461.63
2023-06-15T17:10:51.340Z,101453.81
2023-06-15T17:13:18.621Z,101464.00
2023-06-15T17:15:46.211Z,101465.28
2023-06-15T17:18:13.541Z,101470.84
2023-06-15T17:20:40.778Z,101475.66
2023-06-15T17:23:08.121Z,101468.59
2023-06-15T17:25:35.502Z,101480.47
2023-06-15T17:28:03.459Z,101475.06
2023-06-15T17:30:31.295Z,101476.13
2023-06-15T17:32:58.720Z,101470.16
2023-06-15T17:35:26.417Z,101472.63
2023-06-15T17:37:53.706Z,101473.06
2023-06-15T17:40:21.856Z,101479.53
2023-06-15T17:42:49.549Z,101484.13
2023-06-15T17:45:16.730Z,101472.75
2023-06-15T17:47:45.121Z,101482.13
2023-06-15T17:50:12.421Z,101474.50
2023-06-15T17:52:41.002Z,101476.88
2023-06-15T17:55:09.516Z,101485.66
2023-06-15T17:57:37.400Z,101485.06
2023-06-15T18:00:07.581Z,101481.00
2023-06-15T18:02:36.872Z,101483.91
2023-06-15T18:05:08.261Z,101493.53
2023-06-15T18:07:35.730Z,101491.66
2023-06-15T18:10:03.651Z,101492.38
2023-06-15T18:12:31.739Z,101490.47
2023-06-15T18:14:59.619Z,101498.22
2023-06-15T18:17:27.528Z,101500.91
2023-06-15T18:19:54.742Z,101495.16
2023-06-15T18:22:22.007Z,101504.78
2023-06-15T18:24:49.389Z,101500.44
2023-06-15T18:27:16.758Z,101501.47
2023-06-15T18:29:43.979Z,101505.69
2023-06-15T18:32:11.332Z,101504.66
2023-06-15T18:34:48.660Z,101502.41
2023-06-15T18:37:16.016Z,101502.06
2023-06-15T18:39:43.221Z,101506.28
2023-06-15T18:42:11.929Z,101505.91
2023-06-15T18:44:39.130Z,101509.91
2023-06-15T18:47:07.347Z,101511.19
2023-06-15T18:49:34.712Z,101523.25
2023-06-15T18:52:02.020Z,101519.13
2023-06-15T18:54:29.204Z,101521.25
2023-06-15T18:56:57.795Z,101514.09
2023-06-15T18:59:25.004Z,101519.72
2023-06-15T19:01:52.962Z,101518.75
2023-06-15T19:04:20.368Z,101517.03
2023-06-15T19:06:48.546Z,101522.84
2023-06-15T19:09:15.991Z,101520.03
2023-06-15T19:11:43.599Z,101509.72
2023-06-15T19:14:11.582Z,101521.50
2023-06-15T19:16:38.729Z,101523.84
2023-06-15T19:19:06.179Z,101519.59
2023-06-15T19:21:38.470Z,101522.97
2023-06-15T19:24:09.006Z,101515.38
2023-06-15T19:26:37.648Z,101524.72
2023-06-15T19:29:06.316Z,101519.78
2023-06-15T19:31:34.407Z,101515.69
2023-06-15T19:34:02.070Z,101519.66
2023-06-15T19:36:30.179Z,101523.03
2023-06-15T19:39:02.659Z,101519.13
2023-06-15T19:41:31.196Z,101526.63
2023-06-15T19:43:58.720Z,101527.88
2023-06-15T19:46:25.938Z,101528.00
2023-06-15T19:48:55.510Z,101531.13
2023-06-15T19:51:22.865Z,101536.16
2023-06-15T19:53:52.329Z,101536.00
2023-06-15T19:56:19.677Z,101538.31
2023-06-15T19:58:47.040Z,101541.69
2023-06-15T20:01:14.436Z,101537.75
2023-06-15T20:03:41.767Z,101546.28
2023-06-15T20:06:10.958Z,101536.22
2023-06-15T20:08:39.653Z,101548.69
2023-06-15T20:11:08.723Z,101543.50
2023-06-15T20:13:38.306Z,101553.91
2023-06-15T20:16:13.672Z,101553.75
2023-06-15T20:18:48.093Z,101553.75
2023-06-15T20:21:15.852Z,101551.53
2023-06-15T20:23:43.908Z,101552.41
2023-06-15T20:26:14.059Z,101560.47
2023-06-15T20:28:43.437Z,101563.81
2023-06-15T20:31:10.983Z,101562.59
2023-06-15T20:33:41.888Z,101562.59
2023-06-15T20:36:08.999Z,101559.31
2023-06-15T20:38:36.437Z,101563.06
2023-06-15T20:41:05.809Z,101555.19
2023-06-15T20:43:33.695Z,101560.19
2023-06-15T20:46:03.177Z,101573.28
2023-06-15T20:48:34.203Z,101572.22
2023-06-15T20:51:02.837Z,101569.75
2023-06-15T20:53:30.163Z,101579.69
2023-06-15T20:55:58.187Z,101577.44
2023-06-15T20:58:25.388Z,101583.03
2023-06-15T21:00:53.242Z,101574.59
2023-06-15T21:03:20.669Z,101582.03
2023-06-15T21:05:48.566Z,101581.44
2023-06-15T21:08:15.833Z,101581.84
2023-06-15T21:10:43.086Z,101576.69
2023-06-15T21:13:10.337Z,101575.28
2023-06-15T21:15:38.328Z,101576.31
2023-06-15T21:18:05.717Z,101575.94
2023-06-15T21:20:38.881Z,101575.53
2023-06-15T21:23:05.988Z,101578.66
2023-06-15T21:25:33.153Z,101576.63
2023-06-15T21:28:00.351Z,101579.97
2023-06-15T21:30:27.558Z,101575.47
2023-06-15T21:32:55.041Z,101578.78
2023-06-15T21:35:26.559Z,101575.69
2023-06-15T21:37:53.862Z,101583.16
2023-06-15T21:40:21.142Z,101580.09
2023-06-15T21:42:49.555Z,101583.66
2023-06-15T21:45:17.236Z,101585.50
2023-06-15T21:47:46.565Z,101584.28
2023-06-15T21:50:14.097Z,101578.50
2023-06-15T21:52:47.439Z,101580.81
2023-06-15T21:55:16.408Z,101578.78
2023-06-15T21:57:45.605Z,101571.38
2023-06-15T22:00:13.935Z,101570.78
2023-06-15T22:02:42.074Z,101573.66
2023-06-15T22:05:10.027Z,101571.63
2023-06-15T22:07:37.169Z,101574.94
2023-06-15T22:10:07.015Z,101579.69
2023-06-15T22:12:34.560Z,101572.06
2023-06-15T22:15:02.660Z,101570.63
2023-06-15T22:17:29.840Z,101577.03
2023-06-15T22:19:58.793Z,101569.59
2023-06-15T22:22:26.563Z,101566.72
2023-06-15T22:24:54.916Z,101575.41
2023-06-15T22:27:22.187Z,101575.22
2023-06-15T22:29:52.625Z,101575.44
2023-06-15T22:32:21.074Z,101582.66
2023-06-15T22:34:49.516Z,101582.06
2023-06-15T22:37:17.697Z,101581.63
2023-06-15T22:39:45.211Z,101577.53
2023-06-15T22:42:12.951Z,101580.63
2023-06-15T22:44:40.138Z,101581.03
2023-06-15T22:47:07.859Z,101574.66
2023-06-15T22:49:35.763Z,101584.75
2023-06-15T22:52:04.694Z,101582.50
2023-06-15T22:54:32.657Z,101581.06
2023-06-15T22:56:59.819Z,101591.19
2023-06-15T22:59:26.896Z,101588.50
2023-06-15T23:01:54.270Z,101583.13
2023-06-15T23:04:21.470Z,101593.88
2023-06-15T23:06:48.742Z,101585.63
2023-06-15T23:09:15.971Z,101585.00
2023-06-15T23:11:43.089Z,101588.72
2023-06-15T23:14:10.550Z,101593.47
2023-06-15T23:16:38.118Z,101592.41
2023-06-15T23:19:06.120Z,101593.63
2023-06-15T23:21:40.784Z,101590.34
2023-06-15T23:24:08.779Z,101589.72
2023-06-15T23:26:40.288Z,101592.63
2023-06-15T23:29:08.222Z,101593.44
2023-06-15T23:31:35.801Z,101598.19
2023-06-15T23:34:03.488Z,101601.91
2023-06-15T23:36:30.592Z,101602.09
2023-06-15T23:38:57.659Z,101604.19
2023-06-15T23:41:25.050Z,101602.09
2023-06-15T23:43:53.317Z,101601.50
2023-06-15T23:46:21.267Z,101601.09
2023-06-15T23:48:49.391Z,101600.03
2023-06-15T23:51:18.331Z,101600.03
2023-06-15T23:53:46.656Z,101596.13
2023-06-15T23:56:13.741Z,101599.84
2023-06-15T23:58:41.264Z,101598.00
